createdAt,value
2023-05-10T00:01:13.517Z,10.47
2023-05-10T00:03:41.512Z,10.43
2023-05-10T00:06:08.885Z,10.41
2023-05-10T00:08:36.001Z,10.40
2023-05-10T00:11:03.341Z,10.40
2023-05-10T00:13:30.765Z,10.41
2023-05-10T00:15:58.232Z,10.47
2023-05-10T00:18:25.729Z,10.44
2023-05-10T00:20:53.186Z,10.46
2023-05-10T00:23:20.500Z,10.39
2023-05-10T00:25:48.042Z,10.45
2023-05-10T00:28:15.396Z,10.36
2023-05-10T00:30:42.629Z,10.29
2023-05-10T00:33:10.156Z,10.40
2023-05-10T00:35:37.401Z,10.30
2023-05-10T00:38:04.765Z,10.33
2023-05-10T00:40:32.234Z,10.39
2023-05-10T00:43:01.553Z,10.27
2023-05-10T00:45:28.706Z,10.27
2023-05-10T00:47:57.851Z,10.09
2023-05-10T00:50:25.180Z,10.03
2023-05-10T00:52:52.565Z,10.07
2023-05-10T00:55:20.098Z,10.02
2023-05-10T00:57:47.309Z,10.01
2023-05-10T01:00:19.079Z,10.04
2023-05-10T01:02:47.563Z,10.17
2023-05-10T01:05:15.036Z,10.14
2023-05-10T01:07:42.249Z,10.17
2023-05-10T01:10:11.609Z,10.13
2023-05-10T01:12:41.347Z,10.08
2023-05-10T01:15:09.496Z,10.12
2023-05-10T01:17:39.254Z,10.14
2023-05-10T01:20:09.337Z,10.24
2023-05-10T01:22:59.678Z,10.19
2023-05-10T01:25:32.778Z,10.09
2023-05-10T01:28:26.186Z,10.06
2023-05-10T01:31:08.699Z,10.27
2023-05-10T01:33:48.877Z,10.31
2023-05-10T01:36:34.390Z,10.29
2023-05-10T01:39:23.676Z,10.37
2023-05-10T01:42:11.363Z,10.36
2023-05-10T01:44:42.346Z,10.32
2023-05-10T01:47:12.852Z,10.10
2023-05-10T01:49:51.256Z,9.93
2023-05-10T01:52:21.254Z,9.84
2023-05-10T01:54:57.267Z,9.74
2023-05-10T01:57:27.275Z,9.72
2023-05-10T01:59:55.434Z,9.75
2023-05-10T02:02:24.050Z,9.74
2023-05-10T02:04:52.677Z,9.77
2023-05-10T02:07:20.297Z,9.88
2023-05-10T02:09:49.084Z,9.87
2023-05-10T02:12:17.468Z,10.06
2023-05-10T02:14:45.476Z,10.15
2023-05-10T02:17:13.432Z,10.10
2023-05-10T02:19:41.951Z,10.05
2023-05-10T02:22:10.596Z,10.04
2023-05-10T02:24:38.492Z,10.07
2023-05-10T02:27:06.238Z,10.25
2023-05-10T02:29:33.860Z,10.39
2023-05-10T02:32:01.691Z,10.50
2023-05-10T02:34:29.673Z,10.41
2023-05-10T02:36:57.452Z,10.32
2023-05-10T02:39:26.005Z,10.09
2023-05-10T02:41:54.659Z,10.12
2023-05-10T02:44:23.633Z,10.02
2023-05-10T02:46:51.195Z,10.08
2023-05-10T02:49:20.005Z,10.09
2023-05-10T02:52:02.169Z,9.90
2023-05-10T02:54:32.776Z,9.92
2023-05-10T02:57:02.433Z,9.92
2023-05-10T02:59:30.000Z,9.90
2023-05-10T03:01:57.216Z,9.89
2023-05-10T03:04:24.449Z,9.95
2023-05-10T03:06:53.197Z,9.85
2023-05-10T03:09:20.972Z,9.86
2023-05-10T03:12:13.093Z,9.83
2023-05-10T03:14:50.733Z,9.78
2023-05-10T03:17:22.227Z,9.76
2023-05-10T03:19:57.873Z,9.80
2023-05-10T03:23:06.130Z,9.74
2023-05-10T03:25:33.651Z,9.73
2023-05-10T03:28:03.505Z,9.83
2023-05-10T03:30:31.788Z,9.85
2023-05-10T03:32:59.621Z,9.86
2023-05-10T03:35:26.880Z,9.91
2023-05-10T03:37:54.065Z,9.88
2023-05-10T03:40:21.448Z,9.87
2023-05-10T03:42:48.818Z,9.89
2023-05-10T03:45:16.598Z,9.95
2023-05-10T03:47:44.073Z,9.94
2023-05-10T03:50:11.501Z,9.91
2023-05-10T03:52:40.226Z,9.90
2023-05-10T03:55:08.698Z,9.90
2023-05-10T03:57:36.478Z,10.03
2023-05-10T04:00:04.791Z,10.03
2023-05-10T04:02:41.768Z,10.02
2023-05-10T04:05:10.043Z,10.17
2023-05-10T04:07:37.243Z,10.15
2023-05-10T04:10:05.224Z,10.17
2023-05-10T04:12:32.607Z,10.07
2023-05-10T04:14:59.758Z,10.19
2023-05-10T04:17:26.892Z,10.23
2023-05-10T04:19:55.837Z,10.21
2023-05-10T04:22:22.985Z,10.25
2023-05-10T04:24:50.363Z,10.33
2023-05-10T04:27:17.928Z,10.54
2023-05-10T04:29:45.036Z,10.65
2023-05-10T04:32:12.262Z,10.60
2023-05-10T04:34:39.680Z,10.73
2023-05-10T04:37:07.448Z,11.05
2023-05-10T04:39:34.717Z,11.09
2023-05-10T04:42:03.972Z,11.16
2023-05-10T04:44:31.791Z,11.00
2023-05-10T04:46:59.106Z,11.15
2023-05-10T04:49:26.575Z,11.25
2023-05-10T04:51:53.729Z,11.15
2023-05-10T04:54:21.101Z,11.28
2023-05-10T04:56:48.519Z,11.20
2023-05-10T04:59:15.871Z,11.25
2023-05-10T05:01:43.046Z,11.41
2023-05-10T05:04:10.677Z,11.64
2023-05-10T05:06:37.785Z,11.53
2023-05-10T05:09:04.941Z,11.74
2023-05-10T05:11:32.351Z,11.92
2023-05-10T05:14:00.325Z,12.07
2023-05-10T05:16:27.870Z,12.28
2023-05-10T05:18:55.618Z,12.31
2023-05-10T05:21:23.372Z,12.56
2023-05-10T05:23:51.293Z,13.78
2023-05-10T05:26:18.818Z,16.73
2023-05-10T05:28:45.994Z,18.66
2023-05-10T05:31:13.249Z,20.27
2023-05-10T05:33:40.931Z,22.41
2023-05-10T05:36:08.461Z,23.76
2023-05-10T05:38:35.667Z,23.31
2023-05-10T05:41:03.692Z,22.86
2023-05-10T05:43:31.049Z,23.55
2023-05-10T05:45:59.151Z,24.10
2023-05-10T05:48:26.857Z,24.70
2023-05-10T05:50:57.802Z,24.01
2023-05-10T05:53:26.779Z,23.94
2023-05-10T05:55:55.353Z,23.29
2023-05-10T05:58:23.667Z,23.93
2023-05-10T06:00:52.115Z,23.84
2023-05-10T06:03:20.081Z,24.56
2023-05-10T06:05:47.640Z,25.81
2023-05-10T06:08:15.054Z,25.43
2023-05-10T06:10:42.608Z,25.13
2023-05-10T06:13:09.886Z,27.30
2023-05-10T06:15:37.126Z,26.13
2023-05-10T06:18:04.744Z,25.45
2023-05-10T06:20:32.698Z,25.63
2023-05-10T06:22:59.993Z,27.07
2023-05-10T06:25:27.621Z,26.60
2023-05-10T06:27:58.528Z,25.76
2023-05-10T06:30:29.924Z,25.55
2023-05-10T06:32:58.141Z,25.41
2023-05-10T06:35:25.632Z,26.32
2023-05-10T06:37:52.938Z,26.05
2023-05-10T06:40:20.754Z,26.44
2023-05-10T06:42:48.605Z,25.58
2023-05-10T06:45:16.889Z,26.01
2023-05-10T06:47:44.730Z,26.46
2023-05-10T06:50:15.035Z,27.02
2023-05-10T06:52:42.404Z,26.86
2023-05-10T06:55:10.630Z,26.59
2023-05-10T06:57:37.827Z,28.00
2023-05-10T07:00:05.961Z,25.14
2023-05-10T07:02:33.818Z,24.34
2023-05-10T07:05:02.760Z,24.56
2023-05-10T07:07:30.896Z,22.68
2023-05-10T07:09:58.907Z,24.12
2023-05-10T07:12:26.456Z,24.49
2023-05-10T07:14:53.928Z,24.21
2023-05-10T07:17:21.642Z,22.70
2023-05-10T07:19:48.852Z,22.43
2023-05-10T07:22:17.689Z,21.60
2023-05-10T07:24:45.429Z,22.69
2023-05-10T07:27:13.941Z,21.48
2023-05-10T07:29:41.098Z,22.06
2023-05-10T07:32:09.029Z,23.86
2023-05-10T07:34:36.328Z,24.81
2023-05-10T07:37:03.602Z,24.86
2023-05-10T07:39:31.048Z,25.28
2023-05-10T07:41:58.263Z,23.76
2023-05-10T07:44:25.435Z,21.73
2023-05-10T07:46:53.238Z,22.99
2023-05-10T07:49:20.584Z,23.69
2023-05-10T07:51:47.786Z,23.73
2023-05-10T07:54:15.305Z,24.84
2023-05-10T07:56:46.634Z,24.93
2023-05-10T07:59:18.093Z,24.71
2023-05-10T08:01:46.053Z,23.89
2023-05-10T08:04:13.904Z,23.97
2023-05-10T08:06:41.682Z,24.00
2023-05-10T08:09:09.630Z,23.05
2023-05-10T08:11:37.173Z,22.24
2023-05-10T08:14:04.674Z,21.33
2023-05-10T08:16:32.079Z,21.21
2023-05-10T08:18:59.694Z,21.55
2023-05-10T08:21:27.331Z,22.29
2023-05-10T08:23:54.630Z,22.86
2023-05-10T08:26:22.838Z,23.85
2023-05-10T08:28:50.142Z,23.64
2023-05-10T08:31:17.630Z,22.74
2023-05-10T08:33:45.684Z,23.53
2023-05-10T08:36:15.265Z,22.91
2023-05-10T08:38:42.788Z,21.86
2023-05-10T08:41:11.357Z,22.04
2023-05-10T08:43:38.774Z,22.24
2023-05-10T08:46:06.605Z,22.02
2023-05-10T08:48:35.806Z,22.40
2023-05-10T08:51:04.353Z,22.80
2023-05-10T08:53:32.893Z,22.73
2023-05-10T08:56:00.464Z,21.31
2023-05-10T08:58:27.698Z,21.24
2023-05-10T09:00:55.102Z,20.46
2023-05-10T09:03:22.866Z,20.56
2023-05-10T09:05:50.683Z,19.46
2023-05-10T09:08:18.714Z,19.74
2023-05-10T09:10:48.625Z,21.15
2023-05-10T09:13:16.744Z,19.76
2023-05-10T09:15:45.745Z,19.66
2023-05-10T09:18:13.690Z,19.38
2023-05-10T09:20:41.584Z,19.33
2023-05-10T09:23:09.176Z,19.54
2023-05-10T09:25:37.388Z,19.87
2023-05-10T09:28:07.557Z,20.05
2023-05-10T09:30:34.796Z,20.77
2023-05-10T09:33:03.014Z,21.25
2023-05-10T09:35:32.488Z,20.83
2023-05-10T09:38:05.357Z,20.36
2023-05-10T09:40:33.148Z,21.03
2023-05-10T09:43:01.471Z,20.51
2023-05-10T09:45:31.193Z,19.96
2023-05-10T09:48:00.292Z,20.05
2023-05-10T09:50:27.930Z,19.90
2023-05-10T09:52:55.961Z,20.00
2023-05-10T09:55:25.697Z,19.78
2023-05-10T09:58:03.341Z,19.98
2023-05-10T10:00:36.507Z,20.13
2023-05-10T10:03:04.838Z,20.49
2023-05-10T10:05:36.335Z,20.29
2023-05-10T10:08:05.792Z,20.05
2023-05-10T10:10:34.590Z,18.87
2023-05-10T10:13:02.707Z,19.27
2023-05-10T10:15:30.442Z,19.54
2023-05-10T10:17:57.893Z,19.89
2023-05-10T10:20:26.231Z,20.32
2023-05-10T10:22:54.634Z,20.89
2023-05-10T10:25:25.585Z,20.77
2023-05-10T10:27:53.082Z,20.88
2023-05-10T10:30:47.243Z,20.92
2023-05-10T10:33:37.887Z,20.31
2023-05-10T10:36:05.981Z,19.25
2023-05-10T10:38:48.442Z,19.36
2023-05-10T10:41:54.985Z,19.39
2023-05-10T10:44:30.491Z,18.59
2023-05-10T10:47:09.407Z,19.32
2023-05-10T10:49:46.068Z,20.28
2023-05-10T10:52:18.964Z,20.24
2023-05-10T10:55:00.884Z,19.92
2023-05-10T10:57:31.196Z,20.37
2023-05-10T11:00:23.427Z,20.54
2023-05-10T11:02:53.997Z,19.79
2023-05-10T11:05:24.478Z,18.92
2023-05-10T11:07:57.572Z,18.75
2023-05-10T11:10:26.003Z,18.95
2023-05-10T11:13:32.955Z,18.81
2023-05-10T11:16:10.776Z,19.29
2023-05-10T11:18:39.033Z,20.19
2023-05-10T11:21:06.492Z,20.69
2023-05-10T11:23:49.701Z,20.49
2023-05-10T11:26:17.913Z,20.76
2023-05-10T11:28:46.547Z,19.98
2023-05-10T11:31:16.075Z,20.37
2023-05-10T11:33:48.755Z,20.95
2023-05-10T11:36:21.818Z,21.33
2023-05-10T11:38:49.727Z,20.90
2023-05-10T11:41:18.911Z,21.29
2023-05-10T11:43:51.802Z,20.58
2023-05-10T11:46:22.666Z,21.06
2023-05-10T11:48:52.339Z,21.64
2023-05-10T11:51:24.673Z,21.39
2023-05-10T11:53:54.499Z,20.82
2023-05-10T11:56:22.241Z,20.50
2023-05-10T11:58:57.215Z,20.72
2023-05-10T12:01:25.945Z,20.82
2023-05-10T12:03:55.319Z,20.73
2023-05-10T12:06:23.295Z,20.14
2023-05-10T12:08:56.532Z,19.81
2023-05-10T12:11:28.731Z,19.96
2023-05-10T12:13:57.732Z,19.91
2023-05-10T12:16:27.176Z,19.77
2023-05-10T12:18:58.135Z,20.02
2023-05-10T12:21:26.482Z,20.26
2023-05-10T12:23:56.631Z,20.43
2023-05-10T12:26:25.596Z,20.61
2023-05-10T12:31:59.979Z,20.53
2023-05-10T12:34:31.437Z,20.81
2023-05-10T12:36:59.355Z,20.68
2023-05-10T12:39:26.626Z,20.98
2023-05-10T12:41:54.172Z,20.79
2023-05-10T12:44:21.945Z,20.55
2023-05-10T12:46:49.168Z,20.62
2023-05-10T12:49:17.805Z,19.99
2023-05-10T12:51:45.098Z,20.24
2023-05-10T12:54:12.646Z,20.25
2023-05-10T12:56:41.965Z,20.56
2023-05-10T12:59:09.276Z,20.44
2023-05-10T13:01:36.564Z,20.51
2023-05-10T13:04:04.224Z,20.01
2023-05-10T13:06:31.857Z,19.85
2023-05-10T13:08:59.104Z,19.52
2023-05-10T13:11:26.530Z,19.47
2023-05-10T13:13:53.785Z,20.09
2023-05-10T13:16:21.065Z,20.14
2023-05-10T13:18:48.491Z,20.35
2023-05-10T13:21:15.792Z,20.29
2023-05-10T13:23:42.895Z,20.74
2023-05-10T13:26:10.670Z,20.76
2023-05-10T13:28:39.802Z,20.58
2023-05-10T13:31:07.149Z,20.44
2023-05-10T13:33:34.713Z,20.42
2023-05-10T13:36:02.019Z,20.45
2023-05-10T13:38:29.217Z,20.29
2023-05-10T13:40:56.858Z,20.56
2023-05-10T13:43:25.058Z,20.77
2023-05-10T13:45:53.317Z,21.09
2023-05-10T13:48:20.746Z,20.58
2023-05-10T13:50:48.170Z,20.29
2023-05-10T13:53:15.667Z,20.11
2023-05-10T13:55:43.376Z,20.10
2023-05-10T13:58:10.625Z,20.04
2023-05-10T14:00:37.948Z,20.30
2023-05-10T14:03:06.397Z,20.21
2023-05-10T14:05:35.789Z,19.91
2023-05-10T14:08:04.823Z,19.93
2023-05-10T14:10:32.502Z,20.09
2023-05-10T14:13:00.229Z,20.19
2023-05-10T14:15:27.504Z,20.10
2023-05-10T14:17:55.156Z,19.97
2023-05-10T14:20:22.570Z,19.91
2023-05-10T14:22:49.785Z,19.96
2023-05-10T14:25:17.795Z,19.93
2023-05-10T14:27:45.257Z,19.81
2023-05-10T14:30:13.088Z,19.75
2023-05-10T14:32:40.750Z,19.77
2023-05-10T14:35:09.034Z,19.95
2023-05-10T14:37:38.594Z,19.96
2023-05-10T14:40:07.597Z,20.12
2023-05-10T14:42:34.976Z,19.68
2023-05-10T14:45:02.242Z,19.43
2023-05-10T14:47:30.088Z,19.77
2023-05-10T14:49:57.350Z,19.57
2023-05-10T14:52:24.709Z,19.73
2023-05-10T14:54:54.984Z,19.88
2023-05-10T14:57:22.221Z,20.04
2023-05-10T14:59:49.372Z,20.24
2023-05-10T15:02:17.348Z,20.30
2023-05-10T15:04:45.014Z,20.31
2023-05-10T15:07:15.369Z,20.30
2023-05-10T15:09:42.836Z,20.25
2023-05-10T15:12:10.105Z,20.65
2023-05-10T15:14:37.745Z,20.89
2023-05-10T15:17:07.354Z,21.08
2023-05-10T15:19:34.596Z,21.07
2023-05-10T15:22:01.905Z,21.02
2023-05-10T15:24:30.008Z,20.70
2023-05-10T15:27:01.086Z,20.21
2023-05-10T15:29:32.581Z,19.75
2023-05-10T15:32:02.790Z,19.62
2023-05-10T15:34:31.262Z,19.65
2023-05-10T15:37:00.525Z,19.53
2023-05-10T15:39:27.758Z,19.28
2023-05-10T15:41:54.901Z,19.30
2023-05-10T15:44:25.387Z,19.20
2023-05-10T15:46:53.641Z,18.97
2023-05-10T15:49:20.801Z,19.13
2023-05-10T15:51:48.641Z,18.95
2023-05-10T15:54:15.895Z,18.90
2023-05-10T15:56:43.083Z,18.95
2023-05-10T15:59:11.920Z,19.11
2023-05-10T16:01:39.199Z,19.00
2023-05-10T16:04:06.634Z,19.02
2023-05-10T16:06:35.308Z,19.03
2023-05-10T16:09:02.631Z,19.00
2023-05-10T16:11:30.235Z,19.05
2023-05-10T16:13:57.608Z,18.97
2023-05-10T16:16:25.004Z,19.06
2023-05-10T16:18:55.194Z,19.14
2023-05-10T16:21:23.804Z,19.05
2023-05-10T16:23:51.014Z,19.04
2023-05-10T16:26:18.449Z,19.17
2023-05-10T16:28:45.621Z,19.00
2023-05-10T16:31:13.026Z,18.94
2023-05-10T16:33:40.612Z,18.77
2023-05-10T16:36:07.912Z,18.61
2023-05-10T16:38:35.104Z,18.62
2023-05-10T16:41:03.644Z,18.46
2023-05-10T16:43:32.513Z,18.59
2023-05-10T16:45:59.774Z,18.70
2023-05-10T16:48:27.326Z,18.80
2023-05-10T16:50:54.756Z,18.75
2023-05-10T16:53:22.380Z,18.77
2023-05-10T16:55:50.178Z,18.60
2023-05-10T16:58:17.321Z,18.70
2023-05-10T17:00:44.548Z,18.60
2023-05-10T17:03:12.586Z,18.59
2023-05-10T17:05:40.669Z,18.49
2023-05-10T17:08:09.187Z,18.64
2023-05-10T17:10:40.268Z,18.67
2023-05-10T17:13:10.990Z,18.22
2023-05-10T17:15:39.519Z,18.12
2023-05-10T17:18:07.718Z,18.15
2023-05-10T17:20:35.287Z,17.94
2023-05-10T17:23:03.489Z,17.93
2023-05-10T17:25:30.857Z,17.84
2023-05-10T17:27:58.142Z,17.71
2023-05-10T17:30:28.242Z,17.65
2023-05-10T17:32:55.566Z,17.77
2023-05-10T17:35:22.982Z,17.59
2023-05-10T17:37:50.509Z,17.53
2023-05-10T17:40:18.386Z,17.50
2023-05-10T17:42:46.077Z,17.58
2023-05-10T17:45:13.951Z,17.47
2023-05-10T17:47:41.246Z,17.34
2023-05-10T17:50:10.250Z,17.28
2023-05-10T17:52:37.961Z,17.23
2023-05-10T17:55:07.541Z,17.04
2023-05-10T17:57:38.181Z,17.02
2023-05-10T18:00:10.278Z,16.96
2023-05-10T18:02:37.841Z,16.90
2023-05-10T18:05:07.484Z,16.85
2023-05-10T18:07:52.830Z,16.82
2023-05-10T18:10:28.372Z,16.73
2023-05-10T18:12:58.465Z,16.77
2023-05-10T18:15:27.896Z,16.62
2023-05-10T18:17:56.823Z,16.53
2023-05-10T18:20:24.362Z,16.41
2023-05-10T18:22:55.067Z,16.34
2023-05-10T18:25:22.991Z,16.32
2023-05-10T18:27:50.991Z,16.19
2023-05-10T18:30:18.755Z,16.10
2023-05-10T18:32:46.371Z,16.07
2023-05-10T18:35:19.482Z,16.08
2023-05-10T18:37:48.784Z,15.97
2023-05-10T18:40:17.300Z,15.91
2023-05-10T18:42:46.723Z,15.84
2023-05-10T18:45:15.217Z,15.91
2023-05-10T18:47:43.179Z,15.77
2023-05-10T18:50:11.102Z,15.66
2023-05-10T18:52:38.867Z,15.59
2023-05-10T18:55:06.887Z,15.51
2023-05-10T18:57:41.691Z,15.56
2023-05-10T19:00:11.521Z,15.45
2023-05-10T19:02:40.148Z,15.40
2023-05-10T19:05:08.759Z,15.46
2023-05-10T19:07:38.799Z,15.33
2023-05-10T19:10:07.647Z,15.25
2023-05-10T19:12:37.701Z,15.24
2023-05-10T19:15:05.964Z,15.21
2023-05-10T19:17:34.778Z,15.20
2023-05-10T19:20:06.935Z,15.20
2023-05-10T19:22:47.243Z,15.16
2023-05-10T19:25:29.508Z,15.01
2023-05-10T19:28:02.117Z,15.03
2023-05-10T19:30:31.949Z,14.88
2023-05-10T19:32:59.548Z,14.93
2023-05-10T19:35:27.828Z,14.87
2023-05-10T19:37:56.164Z,14.93
2023-05-10T19:40:23.628Z,14.79
2023-05-10T19:42:51.507Z,14.72
2023-05-10T19:45:19.825Z,14.81
2023-05-10T19:47:48.119Z,14.70
2023-05-10T19:50:19.221Z,14.64
2023-05-10T19:52:47.324Z,14.63
2023-05-10T19:55:20.134Z,14.57
2023-05-10T19:57:49.035Z,14.48
2023-05-10T20:00:16.848Z,14.44
2023-05-10T20:02:44.435Z,14.44
2023-05-10T20:05:12.049Z,14.49
2023-05-10T20:07:43.450Z,14.40
2023-05-10T20:10:13.788Z,14.47
2023-05-10T20:12:41.278Z,14.43
2023-05-10T20:15:09.229Z,14.34
2023-05-10T20:17:36.980Z,14.43
2023-05-10T20:20:05.132Z,14.47
2023-05-10T20:22:32.810Z,14.32
2023-05-10T20:25:00.671Z,14.32
2023-05-10T20:27:28.204Z,14.37
2023-05-10T20:29:56.637Z,14.31
2023-05-10T20:32:24.447Z,14.24
2023-05-10T20:34:51.953Z,14.31
2023-05-10T20:37:19.786Z,14.17
2023-05-10T20:39:49.807Z,14.18
2023-05-10T20:42:17.696Z,14.21
2023-05-10T20:44:44.944Z,14.23
2023-05-10T20:47:16.965Z,14.12
2023-05-10T20:49:44.255Z,14.16
2023-05-10T20:52:11.860Z,14.22
2023-05-10T20:54:39.477Z,14.14
2023-05-10T20:57:06.829Z,14.11
2023-05-10T20:59:34.237Z,14.13
2023-05-10T21:02:01.828Z,14.11
2023-05-10T21:04:29.382Z,14.14
2023-05-10T21:06:57.118Z,14.25
2023-05-10T21:09:24.838Z,14.30
2023-05-10T21:11:52.372Z,14.28
2023-05-10T21:14:20.704Z,14.17
2023-05-10T21:16:48.234Z,14.18
2023-05-10T21:19:17.389Z,14.20
2023-05-10T21:21:44.664Z,14.15
2023-05-10T21:24:12.577Z,14.15
2023-05-10T21:26:42.524Z,14.23
2023-05-10T21:29:09.712Z,14.18
2023-05-10T21:31:37.622Z,14.21
2023-05-10T21:34:04.800Z,14.21
2023-05-10T21:36:32.154Z,14.47
2023-05-10T21:38:59.829Z,14.19
2023-05-10T21:41:27.065Z,14.13
2023-05-10T21:43:54.220Z,14.15
2023-05-10T21:46:21.755Z,14.38
2023-05-10T21:48:48.872Z,14.24
2023-05-10T21:51:16.072Z,14.31
2023-05-10T21:53:43.709Z,14.29
2023-05-10T21:56:10.958Z,14.28
2023-05-10T21:58:38.081Z,14.22
2023-05-10T22:01:05.740Z,14.17
2023-05-10T22:03:33.217Z,14.18
2023-05-10T22:06:00.482Z,14.12
2023-05-10T22:08:27.644Z,14.01
2023-05-10T22:10:55.377Z,14.08
2023-05-10T22:13:22.514Z,14.08
2023-05-10T22:15:49.814Z,13.78
2023-05-10T22:18:17.553Z,13.73
2023-05-10T22:20:46.550Z,13.64
2023-05-10T22:23:14.057Z,13.66
2023-05-10T22:25:41.436Z,13.67
2023-05-10T22:28:09.348Z,13.56
2023-05-10T22:30:37.671Z,13.67
2023-05-10T22:33:05.334Z,13.60
2023-05-10T22:35:32.654Z,13.47
2023-05-10T22:37:59.977Z,13.49
2023-05-10T22:40:27.511Z,13.48
2023-05-10T22:42:54.846Z,13.47
2023-05-10T22:45:22.110Z,13.57
2023-05-10T22:47:49.632Z,13.52
2023-05-10T22:50:17.204Z,13.40
2023-05-10T22:52:44.649Z,13.36
2023-05-10T22:55:12.146Z,13.37
2023-05-10T22:57:39.366Z,13.52
2023-05-10T23:00:07.479Z,13.44
2023-05-10T23:02:35.118Z,13.31
2023-05-10T23:05:02.523Z,13.40
2023-05-10T23:07:29.899Z,13.42
2023-05-10T23:09:57.380Z,13.50
2023-05-10T23:12:25.288Z,13.47
2023-05-10T23:14:52.585Z,13.52
2023-05-10T23:17:20.014Z,13.27
2023-05-10T23:19:47.302Z,13.22
2023-05-10T23:22:14.504Z,13.07
2023-05-10T23:24:42.269Z,13.08
2023-05-10T23:27:09.415Z,13.10
2023-05-10T23:29:36.570Z,13.10
2023-05-10T23:32:04.269Z,13.08
2023-05-10T23:34:32.305Z,13.18
2023-05-10T23:36:59.490Z,13.23
2023-05-10T23:39:27.127Z,13.14
2023-05-10T23:41:54.970Z,12.89
2023-05-10T23:44:22.133Z,12.99
2023-05-10T23:46:49.552Z,13.03
2023-05-10T23:49:17.419Z,12.87
2023-05-10T23:51:44.612Z,12.93
2023-05-10T23:54:12.384Z,13.02
2023-05-10T23:56:39.480Z,12.75
2023-05-10T23:59:06.836Z,12.71
